Buffalo Grove, Illinois
Current Conditions -  °F | °C
As of 5:45 AM on Friday 31 Oct 2014 (Local Time) from KPWK Reporting Station
Overcast Overcast  
Wind Chill: 29°   Ceiling: 2800
Heat Index: 40°   Visibility: 10mi
Dew Point: 29°   Wind: 25mph
Humidity: 65%   Direction: 320°NW
Pressure: 30.08"   Gusts: 33mph
Location:  42.15°N, 87.97°W
Report Text: KPWK 311045Z 32022G29KT 10SM BKN028 OVC080 04/M02 A3008 RMK AO2 PK WND 32031/1017 T00441017
Loading
Personal Weather Stations






























Interactive Weather Map
Tropical Storm Tracking
New forecast layout! Learn more

10-Day Weather Forecast

Advertisements
Track Severe Weather on mobile